Estació municipal de Aiguafreda (Osona, P.N. del Montseny)

Consulta les dades en temps real de l'estació municipal de Aiguafreda





Hora UTC 09:05
Temperatura 28.5 ºC
Sòl 15 cm 33.6 ºC
Humitat 54.6 %
Pressió 1020.3 hPa
Pluja 0.0 mm
Velocitat vent 2.1 km/h
Direcció vent S

Dades diàries 2026-09-01



Hora UTC (hivern +1h; estiu +2h)
Temperatura (ºC) Humitat (%) Pressió (hPa) Velocitat vent (km/h) Precipitació (mm)
Hora UTC Aire Sòl 15 cm Humitat Pressió Vel. Dir. Vel. Max Dir. Intent. màx 5 min.
00:05 19.7 18.6 87.1 1021.4 0.0 NNE 0.0 N 0.0
00:10 19.8 18.7 87.1 1021.4 0.0 NNE 0.0 N 0.0
00:15 19.8 18.8 87.0 1021.3 0.0 NNE 0.0 N 0.0
00:20 19.8 18.9 87.0 1021.3 0.0 NNE 0.0 SSE 0.0
00:25 19.9 19.0 86.7 1021.3 0.0 NNE 0.0 SE 0.0
00:30 19.9 19.0 86.2 1021.3 0.0 NNE 0.0 SSE 0.0
00:35 19.9 19.0 85.9 1021.3 0.0 NNE 0.0 W 0.0
00:40 19.8 19.0 85.9 1021.3 0.0 NNE 0.0 NW 0.0
00:45 19.9 19.2 85.7 1021.3 0.0 NNE 0.0 SSE 0.0
00:50 20.0 19.3 85.3 1021.3 0.0 NNE 0.0 SE 0.0
00:55 20.0 19.4 84.9 1021.3 0.0 NNE 0.0 SE 0.0
01:00 20.1 19.5 84.6 1021.3 0.0 NNE 0.0 SSE 0.0
01:05 20.1 19.4 84.6 1021.2 0.0 NNE 0.0 S 0.0
01:10 20.1 19.4 84.7 1021.2 0.0 NNE 0.0 SSE 0.0
01:15 20.1 19.4 84.7 1021.2 0.0 NNE 0.0 SE 0.0
01:20 20.1 19.4 84.8 1021.2 0.0 NNE 0.0 SE 0.0
01:25 20.1 19.4 85.0 1021.1 0.0 NNE 0.0 NW 0.0
01:30 20.1 19.5 85.0 1021.2 0.0 NNE 0.0 NW 0.0
01:35 20.2 19.6 84.8 1021.1 0.0 NNE 0.0 NE 0.0
01:40 20.3 19.7 84.6 1021.2 0.0 NNE 0.0 NE 0.0
01:45 20.3 19.8 84.4 1021.2 0.0 NNE 0.0 NE 0.0
01:50 20.4 19.9 84.3 1021.2 0.0 NNE 0.0 NE 0.0
01:55 20.5 19.9 84.0 1021.1 0.0 NNE 0.0 NE 0.0
02:00 20.6 20.1 83.8 1021.2 0.0 NNE 0.0 NE 0.0
02:05 20.7 20.2 83.4 1021.1 0.0 NNE 0.0 NE 0.0
02:10 20.7 20.2 83.1 1021.1 0.0 NNE 0.0 SW 0.0
02:15 20.8 20.2 82.9 1021.1 0.0 NNE 0.0 W 0.0
02:20 20.8 20.2 82.7 1021.0 0.0 NNE 0.0 W 0.0
02:25 20.8 20.1 82.7 1020.9 0.0 NNE 0.0 W 0.0
02:30 20.7 20.0 83.0 1020.9 0.0 NNE 0.0 WNW 0.0
02:35 20.6 19.8 83.5 1020.8 0.0 NNE 0.0 WNW 0.0
02:40 20.5 19.7 83.8 1020.7 0.0 NNE 0.0 WNW 0.0
02:45 20.4 19.6 84.2 1020.7 0.0 NNE 0.0 WNW 0.0
02:50 20.3 19.4 84.5 1020.7 0.0 NNE 0.0 WNW 0.0
02:55 20.2 19.2 84.7 1020.7 0.0 NNE 0.0 ENE 0.0
03:00 20.1 19.1 85.1 1020.6 0.0 NNE 0.0 SSE 0.0
03:05 20.0 18.9 85.8 1020.6 0.0 NNE 0.0 N 0.0
03:10 19.9 18.7 86.0 1020.5 0.0 NNE 0.0 N 0.0
03:15 19.8 18.6 86.3 1020.5 0.0 NNE 0.0 N 0.0
03:20 19.6 18.4 87.0 1020.4 0.0 NNE 0.0 N 0.0
03:25 19.6 18.3 87.5 1020.4 0.0 NNE 0.0 N 0.0
03:30 19.5 18.1 87.8 1020.4 0.0 NNE 0.0 N 0.0
03:35 19.4 18.0 88.0 1020.4 0.0 NNE 0.0 N 0.0
03:40 19.3 17.9 88.4 1020.4 0.0 NNE 0.0 N 0.0
03:45 19.3 17.9 88.6 1020.4 0.0 NNE 0.0 N 0.0
03:50 19.2 17.8 88.9 1020.4 0.0 NNE 0.0 NE 0.0
03:55 19.2 17.8 89.2 1020.4 0.0 NNE 0.0 NE 0.0
04:00 19.1 17.8 89.3 1020.4 0.0 NNE 0.0 NE 0.0
04:05 19.1 17.7 89.6 1020.4 0.0 NNE 0.0 NE 0.0
04:10 19.1 17.7 89.6 1020.3 0.0 NNE 0.0 NE 0.0
04:15 19.0 17.7 89.7 1020.3 0.0 NNE 0.0 N 0.0
04:20 19.0 17.6 89.9 1020.3 0.0 NNE 0.0 WNW 0.0
04:25 18.9 17.6 89.9 1020.3 0.0 NNE 0.0 WNW 0.0
04:30 18.8 17.6 90.2 1020.3 0.0 NNE 0.0 N 0.0
04:35 18.9 17.7 90.4 1020.2 0.0 NNE 0.0 N 0.0
04:40 18.9 17.8 90.5 1020.2 0.0 NNE 0.0 ESE 0.0
04:45 19.0 18.1 90.3 1020.2 0.0 NNE 0.0 S 0.0
04:50 19.1 18.2 90.0 1020.2 0.0 NNE 0.0 SSW 0.0
04:55 19.0 18.1 89.7 1020.2 0.0 NNE 0.0 WSW 0.0
05:00 19.0 18.0 89.6 1020.2 0.0 NNE 0.0 WSW 0.0
05:05 18.9 17.9 89.8 1020.2 0.0 NNE 0.0 WSW 0.0
05:10 18.9 17.8 89.9 1020.2 0.0 NNE 0.0 WSW 0.0
05:15 18.8 17.7 90.2 1020.2 0.0 NNE 0.0 WSW 0.0
05:20 18.8 17.6 90.3 1020.2 0.0 NNE 0.0 NW 0.0
05:25 18.8 17.6 90.3 1020.3 0.0 NNE 0.0 N 0.0
05:30 18.8 17.6 90.5 1020.4 0.0 NNE 0.0 N 0.0
05:35 18.8 17.7 90.6 1020.4 0.0 NNE 0.0 N 0.0
05:40 18.8 17.8 90.5 1020.4 0.0 NNE 0.0 N 0.0
05:45 18.8 17.9 90.6 1020.4 0.0 NNE 0.0 N 0.0
05:50 18.9 18.0 90.7 1020.5 0.0 NNE 0.0 N 0.0
05:55 19.0 18.0 90.6 1020.4 0.0 NNE 0.0 NNW 0.0
06:00 19.0 18.1 90.4 1020.5 0.0 NNE 0.0 NNW 0.0
06:05 19.0 18.1 90.3 1020.5 0.0 NNE 0.0 NW 0.0
06:10 19.0 18.1 90.3 1020.5 0.0 NNE 0.0 NE 0.0
06:15 19.0 18.1 90.3 1020.4 0.0 NNE 0.0 ENE 0.0
06:20 19.1 18.1 90.3 1020.5 0.0 NNE 0.0 ENE 0.0
06:25 19.1 18.2 90.3 1020.5 0.0 NNE 0.0 ENE 0.0
06:30 19.2 18.3 90.2 1020.6 0.0 NNE 0.0 ENE 0.0
06:35 19.2 18.5 90.0 1020.6 0.0 NNE 0.0 ENE 0.0
06:40 19.4 18.6 89.9 1020.5 0.0 NNE 0.0 ENE 0.0
06:45 19.5 18.9 89.8 1020.5 0.0 NNE 0.0 ENE 0.0
06:50 19.7 19.0 89.4 1020.5 0.0 NNE 0.0 ENE 0.0
06:55 19.8 19.2 88.8 1020.5 0.0 NNE 0.0 ENE 0.0
07:00 20.1 19.5 88.4 1020.6 0.0 NNE 0.0 S 0.0
07:05 20.4 19.8 87.4 1020.6 0.0 NNE 0.0 SSE 0.0
07:10 20.6 20.1 86.1 1020.6 0.0 NNE 0.0 SE 0.0
07:15 20.9 20.4 85.1 1020.6 0.0 NNE 0.0 SE 0.0
07:20 21.2 20.6 84.0 1020.6 0.0 NNE 0.0 S 0.0
07:25 21.6 20.9 82.6 1020.5 0.0 NNE 0.0 SE 0.0
07:30 21.9 21.2 81.8 1020.3 0.0 NNE 0.0 SW 0.0
07:35 22.4 21.5 80.3 1020.2 0.0 NNE 0.0 SW 0.0
07:40 22.9 21.9 78.3 1020.2 0.0 NNE 0.0 SSW 0.0
07:45 23.7 22.4 74.3 1020.2 0.0 NNE 0.0 NW 0.0
07:50 24.7 22.9 70.5 1020.2 0.0 NNE 0.0 WNW 0.0
07:55 25.5 23.6 66.5 1020.2 0.0 NNE 0.0 WNW 0.0
08:00 26.0 24.5 64.0 1020.2 0.0 NNE 0.0 WSW 0.0
08:05 26.4 25.3 62.5 1020.2 0.0 NNE 0.0 SSW 0.0
08:10 26.4 25.8 61.9 1020.2 0.0 NNE 0.0 WSW 0.0
08:15 26.5 26.1 61.7 1020.1 0.0 NNE 0.0 SW 0.0
08:20 26.8 27.2 60.9 1020.2 0.0 NNE 0.0 W 0.0
08:25 26.9 28.1 60.6 1020.2 0.0 NNE 0.0 SSW 0.0
08:30 27.4 29.4 58.6 1020.2 0.0 NNE 0.0 SW 0.0
08:35 27.7 30.2 57.2 1020.2 0.0 NNE 0.0 WSW 0.0
08:40 27.8 31.5 57.1 1020.2 0.0 NNE 0.0 SSE 0.0
08:45 28.1 31.7 55.9 1020.1 0.0 NNE 0.0 WSW 0.0
08:50 28.1 31.5 55.8 1020.1 0.0 NNE 0.0 W 0.0
08:55 27.9 32.2 56.4 1020.1 0.0 NNE 0.0 N 0.0
09:00 28.1 32.9 56.1 1020.2 0.0 NNE 0.0 NW 0.0
09:05 28.5 33.6 54.6 1020.3 2.1 S 6.1 W 0.0
Màxima 28.5 33.6 90.7 1021.4 2.1 S 6.1 W 0.0
Mínima 18.8 17.6 54.6 1020.1
Total 0.0